createdAt,value
2023-10-11T00:02:06.889Z,91.10
2023-10-11T00:05:08.662Z,91.30
2023-10-11T00:08:14.355Z,91.10
2023-10-11T00:11:20.314Z,91.40
2023-10-11T00:14:22.046Z,91.80
2023-10-11T00:17:23.647Z,91.30
2023-10-11T00:20:40.646Z,91.60
2023-10-11T00:23:47.285Z,90.60
2023-10-11T00:26:50.816Z,91.40
2023-10-11T00:29:53.643Z,91.40
2023-10-11T00:32:55.377Z,91.50
2023-10-11T00:35:57.138Z,91.30
2023-10-11T00:38:58.982Z,91.90
2023-10-11T00:42:00.868Z,91.50
2023-10-11T00:45:03.689Z,91.40
2023-10-11T00:48:08.027Z,91.50
2023-10-11T00:51:11.477Z,91.30
2023-10-11T00:54:16.396Z,91.50
2023-10-11T00:57:19.461Z,91.60
2023-10-11T01:00:24.967Z,91.60
2023-10-11T01:03:26.878Z,90.90
2023-10-11T01:06:29.815Z,91.50
2023-10-11T01:09:31.524Z,91.50
2023-10-11T01:12:33.726Z,91.50
2023-10-11T01:15:35.315Z,91.50
2023-10-11T01:18:40.376Z,91.50
2023-10-11T01:21:47.605Z,92.40
2023-10-11T01:24:49.206Z,91.60
2023-10-11T01:27:50.918Z,91.60
2023-10-11T01:30:52.951Z,91.80
2023-10-11T01:33:54.672Z,91.60
2023-10-11T01:36:56.535Z,91.90
2023-10-11T01:39:58.180Z,91.70
2023-10-11T01:43:00.377Z,91.70
2023-10-11T01:46:01.998Z,92.30
2023-10-11T01:49:06.893Z,91.90
2023-10-11T01:52:08.667Z,91.50
2023-10-11T01:55:19.428Z,91.80
2023-10-11T01:58:21.018Z,92.00
2023-10-11T02:01:26.962Z,91.90
2023-10-11T02:04:30.213Z,92.00
2023-10-11T02:07:32.713Z,91.90
2023-10-11T02:10:37.441Z,92.00
2023-10-11T02:13:40.825Z,92.00
2023-10-11T02:16:42.539Z,92.50
2023-10-11T02:19:44.735Z,92.20
2023-10-11T02:22:46.295Z,91.60
2023-10-11T02:25:49.080Z,92.70
2023-10-11T02:28:52.346Z,92.30
2023-10-11T02:31:54.943Z,92.20
2023-10-11T02:34:56.541Z,92.30
2023-10-11T02:38:00.329Z,92.20
2023-10-11T02:41:03.477Z,92.20
2023-10-11T02:44:05.449Z,92.30
2023-10-11T02:47:08.150Z,92.30
2023-10-11T02:50:09.980Z,92.40
2023-10-11T02:53:24.085Z,92.20
2023-10-11T02:56:25.763Z,92.00
2023-10-11T02:59:27.459Z,93.10
2023-10-11T03:02:31.325Z,92.50
2023-10-11T03:05:33.184Z,92.50
2023-10-11T03:08:35.289Z,92.50
2023-10-11T03:11:46.469Z,92.80
2023-10-11T03:14:56.176Z,92.60
2023-10-11T03:17:58.227Z,92.80
2023-10-11T03:21:20.677Z,92.40
2023-10-11T03:24:25.400Z,93.00
2023-10-11T03:27:37.449Z,92.50
2023-10-11T03:30:39.726Z,92.60
2023-10-11T03:33:41.939Z,92.80
2023-10-11T03:36:50.710Z,92.40
2023-10-11T03:39:58.654Z,92.40
2023-10-11T03:43:02.466Z,92.00
2023-10-11T03:46:05.730Z,92.80
2023-10-11T03:49:19.414Z,92.40
2023-10-11T03:52:31.701Z,91.70
2023-10-11T03:55:33.591Z,92.20
2023-10-11T03:58:38.602Z,92.50
2023-10-11T04:01:40.412Z,92.60
2023-10-11T04:04:43.808Z,92.50
2023-10-11T04:07:45.736Z,92.50
2023-10-11T04:10:50.737Z,92.60
2023-10-11T04:13:54.251Z,92.70
2023-10-11T04:16:57.425Z,92.90
2023-10-11T04:20:18.358Z,92.30
2023-10-11T04:23:25.620Z,91.90
2023-10-11T04:26:34.882Z,92.30
2023-10-11T04:29:39.450Z,92.40
2023-10-11T04:32:46.878Z,92.40
2023-10-11T04:35:57.233Z,91.60
2023-10-11T04:39:14.824Z,92.30
2023-10-11T04:42:18.237Z,92.20
2023-10-11T04:45:23.349Z,92.40
2023-10-11T04:48:41.014Z,92.70
2023-10-11T04:51:46.234Z,92.30
2023-10-11T04:54:57.004Z,92.40
2023-10-11T04:58:09.436Z,91.50
2023-10-11T05:01:13.035Z,91.60
2023-10-11T05:04:16.513Z,92.60
2023-10-11T05:07:21.246Z,92.30
2023-10-11T05:10:22.961Z,92.30
2023-10-11T05:13:37.490Z,92.30
2023-10-11T05:16:45.797Z,92.30
2023-10-11T05:20:04.814Z,92.30
2023-10-11T05:23:06.718Z,92.40
2023-10-11T05:26:28.326Z,92.40
2023-10-11T05:29:32.701Z,92.40
2023-10-11T05:32:42.532Z,92.30
2023-10-11T05:35:47.596Z,92.50
2023-10-11T05:39:08.488Z,91.70
2023-10-11T05:42:28.640Z,91.60
2023-10-11T05:45:48.915Z,92.10
2023-10-11T05:49:09.390Z,91.60
2023-10-11T05:52:11.056Z,91.80
2023-10-11T05:55:13.861Z,92.50
2023-10-11T05:58:15.900Z,92.20
2023-10-11T06:01:24.334Z,92.20
2023-10-11T06:04:26.156Z,92.20
2023-10-11T06:07:35.509Z,92.20
2023-10-11T06:10:42.791Z,92.10
2023-10-11T06:13:44.469Z,92.50
2023-10-11T06:16:59.581Z,92.10
2023-10-11T06:20:21.622Z,92.20
2023-10-11T06:23:23.224Z,92.10
2023-10-11T06:26:50.754Z,92.10
2023-10-11T06:29:55.658Z,91.30
2023-10-11T06:32:57.973Z,91.40
2023-10-11T06:35:59.847Z,91.80
2023-10-11T06:39:05.670Z,91.90
2023-10-11T06:42:22.876Z,92.00
2023-10-11T06:45:29.424Z,91.10
2023-10-11T06:48:31.165Z,92.40
2023-10-11T06:51:33.479Z,92.00
2023-10-11T06:54:35.090Z,92.20
2023-10-11T06:57:40.833Z,92.00
2023-10-11T07:00:49.382Z,91.10
2023-10-11T07:03:53.354Z,91.90
2023-10-11T07:06:55.145Z,91.70
2023-10-11T07:09:59.554Z,91.90
2023-10-11T07:13:05.271Z,90.90
2023-10-11T07:16:10.130Z,91.70
2023-10-11T07:19:16.924Z,91.70
2023-10-11T07:22:27.094Z,91.10
2023-10-11T07:25:37.999Z,90.70
2023-10-11T07:28:39.746Z,90.70
2023-10-11T07:31:50.145Z,91.70
2023-10-11T07:34:55.773Z,91.20
2023-10-11T07:37:57.896Z,91.10
2023-10-11T07:41:05.785Z,91.00
2023-10-11T07:44:07.901Z,91.10
2023-10-11T07:47:16.745Z,91.00
2023-10-11T07:50:25.199Z,91.40
2023-10-11T07:53:27.112Z,91.10
2023-10-11T07:56:29.185Z,90.90
2023-10-11T07:59:32.267Z,90.90
2023-10-11T08:02:43.076Z,91.00
2023-10-11T08:05:51.390Z,90.80
2023-10-11T08:09:00.594Z,90.10
2023-10-11T08:12:09.068Z,91.00
2023-10-11T08:15:12.323Z,90.60
2023-10-11T08:18:17.315Z,90.90
2023-10-11T08:21:19.564Z,90.50
2023-10-11T08:24:26.390Z,91.30
2023-10-11T08:27:28.354Z,90.70
2023-10-11T08:30:32.552Z,91.20
2023-10-11T08:33:34.244Z,90.80
2023-10-11T08:36:35.919Z,91.00
2023-10-11T08:39:42.786Z,90.50
2023-10-11T08:42:49.509Z,90.70
2023-10-11T08:45:53.815Z,90.60
2023-10-11T08:48:55.782Z,90.60
2023-10-11T08:52:03.444Z,91.00
2023-10-11T08:55:07.441Z,90.00
2023-10-11T08:58:14.285Z,90.40
2023-10-11T09:01:19.534Z,91.00
2023-10-11T09:04:28.221Z,90.60
2023-10-11T09:07:46.697Z,90.70
2023-10-11T09:10:50.469Z,90.50
2023-10-11T09:13:52.329Z,90.80
2023-10-11T09:17:03.809Z,90.60
2023-10-11T09:20:16.381Z,90.00
2023-10-11T09:23:24.357Z,90.00
2023-10-11T09:26:42.506Z,89.10
2023-10-11T09:29:50.071Z,88.70
2023-10-11T09:32:53.235Z,88.40
2023-10-11T09:36:04.917Z,89.80
2023-10-11T09:39:06.581Z,90.10
2023-10-11T09:42:12.557Z,90.10
2023-10-11T09:45:18.753Z,89.30
2023-10-11T09:48:23.403Z,89.80
2023-10-11T09:51:27.360Z,89.30
2023-10-11T09:54:29.213Z,90.10
2023-10-11T09:57:42.888Z,89.40
2023-10-11T10:00:45.006Z,89.10
2023-10-11T10:03:48.552Z,89.40
2023-10-11T10:07:12.980Z,89.00
2023-10-11T10:10:16.977Z,86.70
2023-10-11T10:13:18.671Z,88.90
2023-10-11T10:16:20.365Z,88.60
2023-10-11T10:19:25.127Z,87.10
2023-10-11T10:22:32.798Z,87.20
2023-10-11T10:25:34.531Z,87.90
2023-10-11T10:28:46.775Z,89.30
2023-10-11T10:32:07.813Z,86.40
2023-10-11T10:35:22.029Z,88.20
2023-10-11T10:38:24.086Z,88.60
2023-10-11T10:41:31.804Z,88.20
2023-10-11T10:44:33.965Z,86.00
2023-10-11T10:47:38.093Z,88.20
2023-10-11T10:50:50.479Z,88.20
2023-10-11T10:53:52.523Z,85.90
2023-10-11T10:56:58.940Z,87.50
2023-10-11T11:00:22.474Z,87.10
2023-10-11T11:03:25.290Z,85.30
2023-10-11T11:06:38.484Z,87.30
2023-10-11T11:09:40.184Z,87.10
2023-10-11T11:12:41.930Z,87.40
2023-10-11T11:15:45.488Z,87.00
2023-10-11T11:18:48.216Z,87.10
2023-10-11T11:21:49.880Z,87.30
2023-10-11T11:24:53.709Z,87.00
2023-10-11T11:28:18.412Z,87.30
2023-10-11T11:31:26.033Z,87.90
2023-10-11T11:34:28.738Z,86.00
2023-10-11T11:37:31.972Z,87.50
2023-10-11T11:40:48.691Z,86.80
2023-10-11T11:43:50.302Z,86.50
2023-10-11T11:46:54.087Z,87.20
2023-10-11T11:50:01.129Z,86.40
2023-10-11T11:53:04.180Z,87.90
2023-10-11T11:56:08.609Z,86.30
2023-10-11T11:59:18.728Z,86.70
2023-10-11T12:02:21.889Z,87.20
2023-10-11T12:05:23.536Z,87.40
2023-10-11T12:08:25.861Z,87.50
2023-10-11T12:11:32.115Z,86.60
2023-10-11T12:14:38.373Z,87.20
2023-10-11T12:17:40.402Z,86.80
2023-10-11T12:20:48.961Z,86.50
2023-10-11T12:23:52.027Z,86.50
2023-10-11T12:26:59.152Z,86.90
2023-10-11T12:30:09.336Z,86.80
2023-10-11T12:33:11.541Z,86.70
2023-10-11T12:36:16.128Z,87.70
2023-10-11T12:39:30.768Z,87.20
2023-10-11T12:42:35.085Z,85.70
2023-10-11T12:45:37.817Z,86.90
2023-10-11T12:48:39.446Z,86.60
2023-10-11T12:51:43.179Z,87.00
2023-10-11T12:54:44.905Z,86.70
2023-10-11T12:57:46.522Z,87.20
2023-10-11T13:00:59.721Z,86.90
2023-10-11T13:04:09.911Z,85.60
2023-10-11T13:07:14.833Z,85.80
2023-10-11T13:10:16.967Z,87.20
2023-10-11T13:13:19.285Z,86.60
2023-10-11T13:16:28.453Z,88.00
2023-10-11T13:19:31.911Z,87.30
2023-10-11T13:22:33.618Z,86.60
2023-10-11T13:25:35.286Z,86.60
2023-10-11T13:28:37.828Z,86.60
2023-10-11T13:31:41.627Z,87.40
2023-10-11T13:34:43.564Z,87.20
2023-10-11T13:37:48.070Z,86.80
2023-10-11T13:40:51.485Z,85.50
2023-10-11T13:43:53.238Z,88.40
2023-10-11T13:46:56.923Z,88.50
2023-10-11T13:50:00.519Z,87.70
2023-10-11T13:53:05.321Z,87.50
2023-10-11T13:56:32.582Z,88.50
2023-10-11T13:59:38.898Z,85.40
2023-10-11T14:02:45.500Z,88.10
2023-10-11T14:05:51.790Z,87.40
2023-10-11T14:08:53.742Z,87.70
2023-10-11T14:11:55.374Z,88.70
2023-10-11T14:14:57.438Z,88.40
2023-10-11T14:17:59.197Z,87.50
2023-10-11T14:21:02.301Z,86.90
2023-10-11T14:24:08.660Z,86.40
2023-10-11T14:27:10.369Z,86.20
2023-10-11T14:30:15.968Z,86.80
2023-10-11T14:33:19.416Z,86.50
2023-10-11T14:36:24.455Z,86.90
2023-10-11T14:39:26.449Z,88.40
2023-10-11T14:42:30.865Z,87.50
2023-10-11T14:45:34.989Z,87.70
2023-10-11T14:48:36.897Z,88.20
2023-10-11T14:51:40.758Z,87.30
2023-10-11T14:54:45.816Z,87.70
2023-10-11T14:57:51.341Z,88.40
2023-10-11T15:00:54.871Z,87.60
2023-10-11T15:04:01.665Z,87.20
2023-10-11T15:07:07.518Z,87.40
2023-10-11T15:10:11.847Z,87.40
2023-10-11T15:13:13.537Z,86.50
2023-10-11T15:16:15.670Z,87.70
2023-10-11T15:19:17.413Z,88.00
2023-10-11T15:22:22.845Z,88.80
2023-10-11T15:25:26.879Z,88.60
2023-10-11T15:28:32.319Z,87.70
2023-10-11T15:31:34.788Z,86.10
2023-10-11T15:34:41.006Z,87.50
2023-10-11T15:37:47.538Z,87.60
2023-10-11T15:41:00.942Z,88.40
2023-10-11T15:44:03.801Z,88.50
2023-10-11T15:47:05.524Z,88.10
2023-10-11T15:50:07.671Z,87.80
2023-10-11T15:53:09.369Z,87.60
2023-10-11T15:56:14.222Z,87.10
2023-10-11T15:59:19.285Z,87.60
2023-10-11T16:02:21.101Z,87.80
2023-10-11T16:05:23.968Z,87.50
2023-10-11T16:08:25.605Z,87.70
2023-10-11T16:11:31.295Z,89.00
2023-10-11T16:14:32.932Z,88.30
2023-10-11T16:17:35.108Z,88.70
2023-10-11T16:20:36.831Z,87.40
2023-10-11T16:23:39.966Z,87.40
2023-10-11T16:26:42.452Z,87.50
2023-10-11T16:29:44.038Z,87.80
2023-10-11T16:32:45.690Z,88.20
2023-10-11T16:35:50.356Z,87.50
2023-10-11T16:38:57.349Z,88.10
2023-10-11T16:41:59.080Z,89.20
2023-10-11T16:45:00.955Z,88.20
2023-10-11T16:48:05.775Z,88.30
2023-10-11T16:51:14.142Z,88.90
2023-10-11T16:54:17.569Z,88.80
2023-10-11T16:57:21.055Z,88.70
2023-10-11T17:00:23.358Z,89.20
2023-10-11T17:03:25.224Z,88.40
2023-10-11T17:06:27.017Z,89.20
2023-10-11T17:09:31.032Z,88.30
2023-10-11T17:12:34.109Z,88.20
2023-10-11T17:15:36.552Z,88.70
2023-10-11T17:18:38.396Z,87.50
2023-10-11T17:21:40.343Z,88.30
2023-10-11T17:24:42.048Z,87.50
2023-10-11T17:27:45.616Z,87.50
2023-10-11T17:30:47.445Z,87.60
2023-10-11T17:33:49.542Z,86.40
2023-10-11T17:36:51.288Z,86.00
2023-10-11T17:39:52.947Z,86.30
2023-10-11T17:42:59.429Z,86.00
2023-10-11T17:46:01.250Z,85.60
2023-10-11T17:49:05.227Z,85.10
2023-10-11T17:52:08.661Z,86.70
2023-10-11T17:55:12.066Z,86.90
2023-10-11T17:58:13.658Z,85.90
2023-10-11T18:01:17.526Z,86.80
2023-10-11T18:04:19.603Z,86.10
2023-10-11T18:07:21.465Z,86.70
2023-10-11T18:10:23.419Z,86.10
2023-10-11T18:13:25.281Z,86.20
2023-10-11T18:16:30.445Z,85.90
2023-10-11T18:19:32.226Z,87.00
2023-10-11T18:22:34.014Z,85.80
2023-10-11T18:25:35.927Z,85.80
2023-10-11T18:28:38.310Z,86.60
2023-10-11T18:31:39.968Z,85.80
2023-10-11T18:34:42.480Z,85.70
2023-10-11T18:37:44.142Z,85.70
2023-10-11T18:40:46.754Z,86.70
2023-10-11T18:43:51.065Z,85.80
2023-10-11T18:46:52.739Z,86.10
2023-10-11T18:49:55.326Z,85.80
2023-10-11T18:52:58.466Z,86.00
2023-10-11T18:56:05.075Z,86.60
2023-10-11T18:59:08.374Z,87.00
2023-10-11T19:02:10.731Z,86.20
2023-10-11T19:05:19.531Z,86.00
2023-10-11T19:08:21.286Z,86.30
2023-10-11T19:11:27.261Z,86.00
2023-10-11T19:14:29.973Z,86.00
2023-10-11T19:17:33.678Z,86.50
2023-10-11T19:20:35.418Z,86.10
2023-10-11T19:23:37.265Z,86.70
2023-10-11T19:26:39.078Z,85.90
2023-10-11T19:29:41.173Z,87.30
2023-10-11T19:32:42.879Z,86.30
2023-10-11T19:35:44.925Z,86.40
2023-10-11T19:38:47.926Z,86.20
2023-10-11T19:41:49.685Z,86.30
2023-10-11T19:44:51.307Z,86.90
2023-10-11T19:47:55.143Z,86.60
2023-10-11T19:50:56.805Z,88.20
2023-10-11T19:53:58.658Z,87.00
2023-10-11T19:57:01.120Z,87.00
2023-10-11T20:00:03.305Z,87.10
2023-10-11T20:03:12.907Z,86.70
2023-10-11T20:06:16.116Z,88.00
2023-10-11T20:09:17.809Z,87.00
2023-10-11T20:12:19.940Z,87.50
2023-10-11T20:15:23.285Z,87.60
2023-10-11T20:18:27.130Z,87.50
2023-10-11T20:21:28.931Z,88.70
2023-10-11T20:24:32.882Z,88.80
2023-10-11T20:27:35.630Z,88.10
2023-10-11T20:30:42.377Z,88.00
2023-10-11T20:33:44.440Z,88.20
2023-10-11T20:36:46.110Z,88.20
2023-10-11T20:39:48.332Z,88.30
2023-10-11T20:42:59.217Z,88.50
2023-10-11T20:46:01.088Z,87.10
2023-10-11T20:49:02.710Z,89.50
2023-10-11T20:52:04.549Z,88.80
2023-10-11T20:55:08.353Z,88.70
2023-10-11T20:58:14.840Z,88.80
2023-10-11T21:01:17.526Z,89.10
2023-10-11T21:04:19.412Z,89.00
2023-10-11T21:07:21.459Z,89.40
2023-10-11T21:10:23.518Z,90.40
2023-10-11T21:13:31.538Z,89.70
2023-10-11T21:16:34.924Z,88.80
2023-10-11T21:19:36.606Z,90.10
2023-10-11T21:22:41.628Z,89.90
2023-10-11T21:25:47.521Z,90.50
2023-10-11T21:28:54.947Z,90.10
2023-10-11T21:31:56.970Z,90.20
2023-10-11T21:35:00.922Z,90.20
2023-10-11T21:38:03.563Z,90.70
2023-10-11T21:41:06.308Z,90.30
2023-10-11T21:44:07.887Z,90.60
2023-10-11T21:47:10.286Z,90.50
2023-10-11T21:50:13.157Z,90.30
2023-10-11T21:53:14.901Z,91.00
2023-10-11T21:56:17.002Z,90.70
2023-10-11T21:59:18.612Z,91.00
2023-10-11T22:02:21.196Z,90.40
2023-10-11T22:05:23.183Z,90.60
2023-10-11T22:08:25.207Z,90.60
2023-10-11T22:11:27.848Z,90.60
2023-10-11T22:14:29.520Z,90.70
2023-10-11T22:17:31.860Z,90.80
2023-10-11T22:20:33.647Z,91.20
2023-10-11T22:23:35.476Z,90.70
2023-10-11T22:26:37.400Z,90.90
2023-10-11T22:29:39.594Z,91.00
2023-10-11T22:32:41.986Z,90.70
2023-10-11T22:35:44.020Z,90.90
2023-10-11T22:38:47.629Z,91.40
2023-10-11T22:41:49.370Z,90.80
2023-10-11T22:44:51.720Z,90.90
2023-10-11T22:47:54.773Z,90.80
2023-10-11T22:50:57.003Z,90.90
2023-10-11T22:54:01.928Z,91.40
2023-10-11T22:57:03.908Z,90.90
2023-10-11T23:00:17.107Z,91.00
2023-10-11T23:03:19.239Z,90.80
2023-10-11T23:06:21.171Z,91.00
2023-10-11T23:09:22.779Z,91.30
2023-10-11T23:12:25.913Z,90.80
2023-10-11T23:15:51.106Z,90.80
2023-10-11T23:18:54.474Z,90.30
2023-10-11T23:21:56.952Z,90.80
2023-10-11T23:24:58.692Z,90.70
2023-10-11T23:28:07.142Z,90.70
2023-10-11T23:31:10.604Z,90.10
2023-10-11T23:34:13.897Z,90.80
2023-10-11T23:37:16.255Z,90.80
2023-10-11T23:40:30.138Z,90.80
2023-10-11T23:43:31.724Z,90.00
2023-10-11T23:46:36.808Z,90.70
2023-10-11T23:49:42.678Z,90.20
2023-10-11T23:52:45.324Z,90.70
2023-10-11T23:55:46.981Z,90.80
2023-10-11T23:58:58.200Z,90.70
